sensor_id;sensor_type;location;lat;lon;timestamp;temperature;humidity
19254;DHT22;9761;50.926;5.330;2022-10-24T00:01:32;17.00;99.90
19254;DHT22;9761;50.926;5.330;2022-10-24T00:04:00;17.00;99.90
19254;DHT22;9761;50.926;5.330;2022-10-24T00:06:27;16.90;99.90
19254;DHT22;9761;50.926;5.330;2022-10-24T00:08:55;17.00;99.90
19254;DHT22;9761;50.926;5.330;2022-10-24T00:11:23;17.00;99.90
19254;DHT22;9761;50.926;5.330;2022-10-24T00:13:53;17.10;99.90
19254;DHT22;9761;50.926;5.330;2022-10-24T00:16:20;17.10;99.90
19254;DHT22;9761;50.926;5.330;2022-10-24T00:18:48;17.10;99.90
19254;DHT22;9761;50.926;5.330;2022-10-24T00:21:16;17.20;99.90
19254;DHT22;9761;50.926;5.330;2022-10-24T00:23:43;17.20;99.90
19254;DHT22;9761;50.926;5.330;2022-10-24T00:26:11;17.30;99.90
19254;DHT22;9761;50.926;5.330;2022-10-24T00:28:39;17.40;99.90
19254;DHT22;9761;50.926;5.330;2022-10-24T00:31:12;17.40;99.90
19254;DHT22;9761;50.926;5.330;2022-10-24T00:33:39;17.40;99.90
19254;DHT22;9761;50.926;5.330;2022-10-24T00:36:10;17.50;99.90
19254;DHT22;9761;50.926;5.330;2022-10-24T00:38:38;17.50;99.90
19254;DHT22;9761;50.926;5.330;2022-10-24T00:41:05;17.70;99.90
19254;DHT22;9761;50.926;5.330;2022-10-24T00:43:33;17.70;99.90
19254;DHT22;9761;50.926;5.330;2022-10-24T00:46:01;17.70;99.90
19254;DHT22;9761;50.926;5.330;2022-10-24T00:48:33;17.70;99.90
19254;DHT22;9761;50.926;5.330;2022-10-24T00:51:03;17.70;99.90
19254;DHT22;9761;50.926;5.330;2022-10-24T00:53:34;17.70;99.90
19254;DHT22;9761;50.926;5.330;2022-10-24T00:56:07;17.70;99.90
19254;DHT22;9761;50.926;5.330;2022-10-24T00:58:38;17.70;99.90
19254;DHT22;9761;50.926;5.330;2022-10-24T01:01:09;17.70;99.90
19254;DHT22;9761;50.926;5.330;2022-10-24T01:03:38;17.70;99.90
19254;DHT22;9761;50.926;5.330;2022-10-24T01:06:29;17.70;99.90
19254;DHT22;9761;50.926;5.330;2022-10-24T01:09:07;17.60;99.90
19254;DHT22;9761;50.926;5.330;2022-10-24T01:11:53;17.70;99.90
19254;DHT22;9761;50.926;5.330;2022-10-24T01:14:33;17.60;99.90
19254;DHT22;9761;50.926;5.330;2022-10-24T01:17:08;17.60;99.90
19254;DHT22;9761;50.926;5.330;2022-10-24T01:22:46;17.60;99.90
19254;DHT22;9761;50.926;5.330;2022-10-24T01:25:24;17.50;99.90
19254;DHT22;9761;50.926;5.330;2022-10-24T01:28:00;17.50;99.90
19254;DHT22;9761;50.926;5.330;2022-10-24T01:30:34;17.50;99.90
19254;DHT22;9761;50.926;5.330;2022-10-24T01:33:06;17.40;99.90
19254;DHT22;9761;50.926;5.330;2022-10-24T01:35:43;17.40;99.90
19254;DHT22;9761;50.926;5.330;2022-10-24T01:38:18;17.40;99.90
19254;DHT22;9761;50.926;5.330;2022-10-24T01:40:51;17.60;99.90
19254;DHT22;9761;50.926;5.330;2022-10-24T01:43:26;17.60;99.90
19254;DHT22;9761;50.926;5.330;2022-10-24T01:46:00;17.60;99.90
19254;DHT22;9761;50.926;5.330;2022-10-24T01:48:30;17.60;99.90
19254;DHT22;9761;50.926;5.330;2022-10-24T01:51:01;17.60;99.90
19254;DHT22;9761;50.926;5.330;2022-10-24T01:53:29;17.50;99.90
19254;DHT22;9761;50.926;5.330;2022-10-24T01:55:58;17.60;99.90
19254;DHT22;9761;50.926;5.330;2022-10-24T01:58:27;17.60;99.90
19254;DHT22;9761;50.926;5.330;2022-10-24T02:00:59;17.60;99.90
19254;DHT22;9761;50.926;5.330;2022-10-24T02:03:33;17.60;99.90
19254;DHT22;9761;50.926;5.330;2022-10-24T02:06:05;17.70;99.90
19254;DHT22;9761;50.926;5.330;2022-10-24T02:08:36;17.70;99.90
19254;DHT22;9761;50.926;5.330;2022-10-24T02:11:06;17.70;99.90
19254;DHT22;9761;50.926;5.330;2022-10-24T02:13:38;17.70;99.90
19254;DHT22;9761;50.926;5.330;2022-10-24T02:16:13;17.70;99.90
19254;DHT22;9761;50.926;5.330;2022-10-24T02:18:41;17.70;99.90
19254;DHT22;9761;50.926;5.330;2022-10-24T02:21:16;17.60;99.90
19254;DHT22;9761;50.926;5.330;2022-10-24T02:23:50;17.60;99.90
19254;DHT22;9761;50.926;5.330;2022-10-24T02:26:23;17.50;99.90
19254;DHT22;9761;50.926;5.330;2022-10-24T02:28:57;17.60;99.90
19254;DHT22;9761;50.926;5.330;2022-10-24T02:31:31;17.60;99.90
19254;DHT22;9761;50.926;5.330;2022-10-24T02:33:59;17.50;99.90
19254;DHT22;9761;50.926;5.330;2022-10-24T02:36:30;17.50;99.90
19254;DHT22;9761;50.926;5.330;2022-10-24T02:38:58;17.50;99.90
19254;DHT22;9761;50.926;5.330;2022-10-24T02:41:31;17.50;99.90
19254;DHT22;9761;50.926;5.330;2022-10-24T02:44:03;17.40;99.90
19254;DHT22;9761;50.926;5.330;2022-10-24T02:46:34;17.40;99.90
19254;DHT22;9761;50.926;5.330;2022-10-24T02:49:02;17.30;99.90
19254;DHT22;9761;50.926;5.330;2022-10-24T02:51:34;17.30;99.90
19254;DHT22;9761;50.926;5.330;2022-10-24T02:54:04;17.30;99.90
19254;DHT22;9761;50.926;5.330;2022-10-24T02:56:32;17.30;99.90
19254;DHT22;9761;50.926;5.330;2022-10-24T02:59:02;17.20;99.90
19254;DHT22;9761;50.926;5.330;2022-10-24T03:01:29;17.20;99.90
19254;DHT22;9761;50.926;5.330;2022-10-24T03:03:57;17.30;99.90
19254;DHT22;9761;50.926;5.330;2022-10-24T03:06:24;17.20;99.90
19254;DHT22;9761;50.926;5.330;2022-10-24T03:08:51;17.20;99.90
19254;DHT22;9761;50.926;5.330;2022-10-24T03:11:18;17.10;99.90
19254;DHT22;9761;50.926;5.330;2022-10-24T03:13:45;17.10;99.90
19254;DHT22;9761;50.926;5.330;2022-10-24T03:16:12;17.10;99.90
19254;DHT22;9761;50.926;5.330;2022-10-24T03:18:39;17.10;99.90
19254;DHT22;9761;50.926;5.330;2022-10-24T03:21:08;17.10;99.90
19254;DHT22;9761;50.926;5.330;2022-10-24T03:23:34;17.20;99.90
19254;DHT22;9761;50.926;5.330;2022-10-24T03:26:01;17.10;99.90
19254;DHT22;9761;50.926;5.330;2022-10-24T03:28:28;17.10;99.90
19254;DHT22;9761;50.926;5.330;2022-10-24T03:30:57;17.10;99.90
19254;DHT22;9761;50.926;5.330;2022-10-24T03:33:27;17.00;99.90
19254;DHT22;9761;50.926;5.330;2022-10-24T03:35:54;17.00;99.90
19254;DHT22;9761;50.926;5.330;2022-10-24T03:38:23;17.00;99.90
19254;DHT22;9761;50.926;5.330;2022-10-24T03:40:50;17.00;99.90
19254;DHT22;9761;50.926;5.330;2022-10-24T03:43:18;17.00;99.90
19254;DHT22;9761;50.926;5.330;2022-10-24T03:45:45;16.90;99.90
19254;DHT22;9761;50.926;5.330;2022-10-24T03:48:14;17.00;99.90
19254;DHT22;9761;50.926;5.330;2022-10-24T03:50:41;17.00;99.90
19254;DHT22;9761;50.926;5.330;2022-10-24T03:53:09;17.00;99.90
19254;DHT22;9761;50.926;5.330;2022-10-24T03:55:40;17.00;99.90
19254;DHT22;9761;50.926;5.330;2022-10-24T03:58:07;17.00;99.90
19254;DHT22;9761;50.926;5.330;2022-10-24T04:00:34;17.00;99.90
19254;DHT22;9761;50.926;5.330;2022-10-24T04:03:05;16.90;99.90
19254;DHT22;9761;50.926;5.330;2022-10-24T04:05:33;16.80;99.90
19254;DHT22;9761;50.926;5.330;2022-10-24T04:08:01;16.80;99.90
19254;DHT22;9761;50.926;5.330;2022-10-24T04:10:29;16.80;99.90
19254;DHT22;9761;50.926;5.330;2022-10-24T04:12:58;16.70;99.90
19254;DHT22;9761;50.926;5.330;2022-10-24T04:15:25;16.60;99.90
19254;DHT22;9761;50.926;5.330;2022-10-24T04:17:52;16.60;99.90
19254;DHT22;9761;50.926;5.330;2022-10-24T04:20:19;16.60;99.90
19254;DHT22;9761;50.926;5.330;2022-10-24T04:22:47;16.60;99.90
19254;DHT22;9761;50.926;5.330;2022-10-24T04:25:15;16.50;99.90
19254;DHT22;9761;50.926;5.330;2022-10-24T04:27:44;16.50;99.90
19254;DHT22;9761;50.926;5.330;2022-10-24T04:30:14;16.40;99.90
19254;DHT22;9761;50.926;5.330;2022-10-24T04:32:44;16.50;99.90
19254;DHT22;9761;50.926;5.330;2022-10-24T04:35:11;16.40;99.90
19254;DHT22;9761;50.926;5.330;2022-10-24T04:37:39;16.40;99.90
19254;DHT22;9761;50.926;5.330;2022-10-24T04:40:07;16.40;99.90
19254;DHT22;9761;50.926;5.330;2022-10-24T04:42:36;16.50;99.90
19254;DHT22;9761;50.926;5.330;2022-10-24T04:45:04;16.50;99.90
19254;DHT22;9761;50.926;5.330;2022-10-24T04:47:33;16.40;99.90
19254;DHT22;9761;50.926;5.330;2022-10-24T04:50:03;16.50;99.90
19254;DHT22;9761;50.926;5.330;2022-10-24T04:52:30;16.50;99.90
19254;DHT22;9761;50.926;5.330;2022-10-24T04:54:58;16.50;99.90
19254;DHT22;9761;50.926;5.330;2022-10-24T04:57:25;16.50;99.90
19254;DHT22;9761;50.926;5.330;2022-10-24T04:59:52;16.40;99.90
19254;DHT22;9761;50.926;5.330;2022-10-24T05:02:20;16.40;99.90
19254;DHT22;9761;50.926;5.330;2022-10-24T05:04:48;16.40;99.90
19254;DHT22;9761;50.926;5.330;2022-10-24T05:07:15;16.50;99.90
19254;DHT22;9761;50.926;5.330;2022-10-24T05:09:45;16.40;99.90
19254;DHT22;9761;50.926;5.330;2022-10-24T05:12:12;16.50;99.90
19254;DHT22;9761;50.926;5.330;2022-10-24T05:14:39;16.40;99.90
19254;DHT22;9761;50.926;5.330;2022-10-24T05:17:07;16.40;99.90
19254;DHT22;9761;50.926;5.330;2022-10-24T05:19:34;16.40;99.90
19254;DHT22;9761;50.926;5.330;2022-10-24T05:22:03;16.40;99.90
19254;DHT22;9761;50.926;5.330;2022-10-24T05:24:30;16.40;99.90
19254;DHT22;9761;50.926;5.330;2022-10-24T05:26:59;16.40;99.90
19254;DHT22;9761;50.926;5.330;2022-10-24T05:29:26;16.40;99.90
19254;DHT22;9761;50.926;5.330;2022-10-24T05:31:54;16.40;99.90
19254;DHT22;9761;50.926;5.330;2022-10-24T05:34:21;16.30;99.90
19254;DHT22;9761;50.926;5.330;2022-10-24T05:37:21;16.40;99.90
19254;DHT22;9761;50.926;5.330;2022-10-24T05:39:50;16.40;99.90
19254;DHT22;9761;50.926;5.330;2022-10-24T05:42:18;16.30;99.90
19254;DHT22;9761;50.926;5.330;2022-10-24T05:44:48;16.30;99.90
19254;DHT22;9761;50.926;5.330;2022-10-24T05:47:36;16.30;99.90
19254;DHT22;9761;50.926;5.330;2022-10-24T05:50:12;16.30;99.90
19254;DHT22;9761;50.926;5.330;2022-10-24T05:52:41;16.30;99.90
19254;DHT22;9761;50.926;5.330;2022-10-24T05:55:34;16.30;99.90
19254;DHT22;9761;50.926;5.330;2022-10-24T05:58:05;16.20;99.90
19254;DHT22;9761;50.926;5.330;2022-10-24T06:03:25;16.30;99.90
19254;DHT22;9761;50.926;5.330;2022-10-24T06:06:29;16.30;99.90
19254;DHT22;9761;50.926;5.330;2022-10-24T06:12:05;16.30;99.90
19254;DHT22;9761;50.926;5.330;2022-10-24T06:17:16;16.20;99.90
19254;DHT22;9761;50.926;5.330;2022-10-24T06:19:46;16.20;99.90
19254;DHT22;9761;50.926;5.330;2022-10-24T06:22:34;16.20;99.90
19254;DHT22;9761;50.926;5.330;2022-10-24T06:25:19;16.10;99.90
19254;DHT22;9761;50.926;5.330;2022-10-24T06:28:34;16.10;99.90
19254;DHT22;9761;50.926;5.330;2022-10-24T06:31:17;16.10;99.90
19254;DHT22;9761;50.926;5.330;2022-10-24T06:34:01;16.20;99.90
19254;DHT22;9761;50.926;5.330;2022-10-24T06:36:44;16.20;99.90
19254;DHT22;9761;50.926;5.330;2022-10-24T06:39:14;16.20;99.90
19254;DHT22;9761;50.926;5.330;2022-10-24T06:41:48;16.10;99.90
19254;DHT22;9761;50.926;5.330;2022-10-24T06:48:14;16.10;99.90
19254;DHT22;9761;50.926;5.330;2022-10-24T06:50:54;16.10;99.90
19254;DHT22;9761;50.926;5.330;2022-10-24T06:53:24;16.10;99.90
19254;DHT22;9761;50.926;5.330;2022-10-24T06:56:01;16.10;99.90
19254;DHT22;9761;50.926;5.330;2022-10-24T06:58:34;16.10;99.90
19254;DHT22;9761;50.926;5.330;2022-10-24T07:01:08;16.10;99.90
19254;DHT22;9761;50.926;5.330;2022-10-24T07:03:59;16.10;99.90
19254;DHT22;9761;50.926;5.330;2022-10-24T07:06:52;16.20;99.90
19254;DHT22;9761;50.926;5.330;2022-10-24T07:09:44;16.20;99.90
19254;DHT22;9761;50.926;5.330;2022-10-24T07:12:33;16.20;99.90
19254;DHT22;9761;50.926;5.330;2022-10-24T07:15:09;16.20;99.90
19254;DHT22;9761;50.926;5.330;2022-10-24T07:18:00;16.30;99.90
19254;DHT22;9761;50.926;5.330;2022-10-24T07:21:10;16.30;99.90
19254;DHT22;9761;50.926;5.330;2022-10-24T07:24:01;16.40;99.90
19254;DHT22;9761;50.926;5.330;2022-10-24T07:26:33;16.40;99.90
19254;DHT22;9761;50.926;5.330;2022-10-24T07:29:03;16.40;99.90
19254;DHT22;9761;50.926;5.330;2022-10-24T07:31:43;16.50;99.90
19254;DHT22;9761;50.926;5.330;2022-10-24T07:34:24;16.50;99.90
19254;DHT22;9761;50.926;5.330;2022-10-24T07:36:59;16.60;99.90
19254;DHT22;9761;50.926;5.330;2022-10-24T07:39:39;16.60;99.90
19254;DHT22;9761;50.926;5.330;2022-10-24T07:42:07;16.60;99.90
19254;DHT22;9761;50.926;5.330;2022-10-24T07:44:57;16.70;99.90
19254;DHT22;9761;50.926;5.330;2022-10-24T07:47:35;16.70;99.90
19254;DHT22;9761;50.926;5.330;2022-10-24T07:50:17;16.80;99.90
19254;DHT22;9761;50.926;5.330;2022-10-24T07:52:49;16.80;99.90
19254;DHT22;9761;50.926;5.330;2022-10-24T07:55:20;16.70;99.90
19254;DHT22;9761;50.926;5.330;2022-10-24T07:58:00;16.70;99.90
19254;DHT22;9761;50.926;5.330;2022-10-24T08:00:41;16.60;99.90
19254;DHT22;9761;50.926;5.330;2022-10-24T08:03:12;16.70;99.90
19254;DHT22;9761;50.926;5.330;2022-10-24T08:05:44;16.80;99.90
19254;DHT22;9761;50.926;5.330;2022-10-24T08:13:55;17.00;99.90
19254;DHT22;9761;50.926;5.330;2022-10-24T08:19:51;16.90;99.90
19254;DHT22;9761;50.926;5.330;2022-10-24T08:22:20;16.80;99.90
19254;DHT22;9761;50.926;5.330;2022-10-24T08:28:20;16.90;99.90
19254;DHT22;9761;50.926;5.330;2022-10-24T08:34:03;17.20;99.90
19254;DHT22;9761;50.926;5.330;2022-10-24T08:36:34;17.10;99.90
19254;DHT22;9761;50.926;5.330;2022-10-24T08:39:06;17.10;99.90
19254;DHT22;9761;50.926;5.330;2022-10-24T08:42:12;17.20;99.90
19254;DHT22;9761;50.926;5.330;2022-10-24T08:44:56;17.50;99.90
19254;DHT22;9761;50.926;5.330;2022-10-24T08:47:29;17.70;99.90
19254;DHT22;9761;50.926;5.330;2022-10-24T08:50:18;17.60;99.90
19254;DHT22;9761;50.926;5.330;2022-10-24T08:52:57;17.50;99.90
19254;DHT22;9761;50.926;5.330;2022-10-24T08:55:44;17.60;99.90
19254;DHT22;9761;50.926;5.330;2022-10-24T08:58:28;17.60;99.90
19254;DHT22;9761;50.926;5.330;2022-10-24T09:01:23;17.40;99.90
19254;DHT22;9761;50.926;5.330;2022-10-24T09:04:06;17.50;99.90
19254;DHT22;9761;50.926;5.330;2022-10-24T09:07:12;17.40;99.90
19254;DHT22;9761;50.926;5.330;2022-10-24T09:09:35;17.50;99.90
19254;DHT22;9761;50.926;5.330;2022-10-24T09:12:11;17.50;99.90
19254;DHT22;9761;50.926;5.330;2022-10-24T09:14:45;17.50;99.90
19254;DHT22;9761;50.926;5.330;2022-10-24T09:17:28;17.70;99.90
19254;DHT22;9761;50.926;5.330;2022-10-24T09:20:38;17.60;99.90
19254;DHT22;9761;50.926;5.330;2022-10-24T09:42:04;17.70;99.90
19254;DHT22;9761;50.926;5.330;2022-10-24T09:44:40;17.50;99.90
19254;DHT22;9761;50.926;5.330;2022-10-24T09:47:44;17.50;99.90
19254;DHT22;9761;50.926;5.330;2022-10-24T09:50:20;17.40;99.90
19254;DHT22;9761;50.926;5.330;2022-10-24T09:52:52;17.40;99.90
19254;DHT22;9761;50.926;5.330;2022-10-24T09:55:25;17.50;99.90
19254;DHT22;9761;50.926;5.330;2022-10-24T09:57:58;17.60;99.90
19254;DHT22;9761;50.926;5.330;2022-10-24T10:00:35;17.50;99.90
19254;DHT22;9761;50.926;5.330;2022-10-24T10:03:19;17.50;99.90
19254;DHT22;9761;50.926;5.330;2022-10-24T10:05:50;17.70;99.90
19254;DHT22;9761;50.926;5.330;2022-10-24T10:08:22;17.80;99.90
19254;DHT22;9761;50.926;5.330;2022-10-24T10:11:00;17.70;99.90
19254;DHT22;9761;50.926;5.330;2022-10-24T10:13:29;17.80;99.90
19254;DHT22;9761;50.926;5.330;2022-10-24T10:16:02;17.90;99.90
19254;DHT22;9761;50.926;5.330;2022-10-24T10:18:40;18.10;99.90
19254;DHT22;9761;50.926;5.330;2022-10-24T10:21:13;18.00;99.90
19254;DHT22;9761;50.926;5.330;2022-10-24T10:23:45;18.10;99.90
19254;DHT22;9761;50.926;5.330;2022-10-24T10:26:14;17.80;99.90
19254;DHT22;9761;50.926;5.330;2022-10-24T10:29:02;17.90;99.90
19254;DHT22;9761;50.926;5.330;2022-10-24T10:31:39;17.90;99.90
19254;DHT22;9761;50.926;5.330;2022-10-24T10:34:33;17.80;99.90
19254;DHT22;9761;50.926;5.330;2022-10-24T10:37:22;17.90;99.90
19254;DHT22;9761;50.926;5.330;2022-10-24T10:40:17;18.00;99.90
19254;DHT22;9761;50.926;5.330;2022-10-24T10:43:23;18.10;99.90
19254;DHT22;9761;50.926;5.330;2022-10-24T10:46:09;18.30;99.90
19254;DHT22;9761;50.926;5.330;2022-10-24T10:48:48;18.10;99.90
19254;DHT22;9761;50.926;5.330;2022-10-24T10:51:40;18.10;99.90
19254;DHT22;9761;50.926;5.330;2022-10-24T10:54:33;18.40;99.90
19254;DHT22;9761;50.926;5.330;2022-10-24T10:57:09;18.40;99.90
19254;DHT22;9761;50.926;5.330;2022-10-24T11:00:17;18.50;99.90
19254;DHT22;9761;50.926;5.330;2022-10-24T11:03:19;18.50;99.90
19254;DHT22;9761;50.926;5.330;2022-10-24T11:06:03;18.50;99.90
19254;DHT22;9761;50.926;5.330;2022-10-24T11:09:16;18.50;99.90
19254;DHT22;9761;50.926;5.330;2022-10-24T11:12:13;18.30;99.90
19254;DHT22;9761;50.926;5.330;2022-10-24T11:15:06;18.10;99.90
19254;DHT22;9761;50.926;5.330;2022-10-24T11:17:44;18.20;99.90
19254;DHT22;9761;50.926;5.330;2022-10-24T11:23:36;18.30;99.90
19254;DHT22;9761;50.926;5.330;2022-10-24T11:30:03;18.50;99.90
19254;DHT22;9761;50.926;5.330;2022-10-24T11:32:49;18.50;99.90
19254;DHT22;9761;50.926;5.330;2022-10-24T11:38:27;18.50;99.90
19254;DHT22;9761;50.926;5.330;2022-10-24T11:44:46;18.80;99.90
19254;DHT22;9761;50.926;5.330;2022-10-24T11:47:49;18.80;99.90
19254;DHT22;9761;50.926;5.330;2022-10-24T11:50:24;18.70;99.90
19254;DHT22;9761;50.926;5.330;2022-10-24T11:53:12;18.80;99.90
19254;DHT22;9761;50.926;5.330;2022-10-24T11:55:44;18.70;99.90
19254;DHT22;9761;50.926;5.330;2022-10-24T11:58:20;18.80;99.90
19254;DHT22;9761;50.926;5.330;2022-10-24T12:01:25;18.80;99.90
19254;DHT22;9761;50.926;5.330;2022-10-24T12:04:14;18.90;99.90
19254;DHT22;9761;50.926;5.330;2022-10-24T12:10:48;18.80;99.90
19254;DHT22;9761;50.926;5.330;2022-10-24T12:14:02;18.50;99.90
19254;DHT22;9761;50.926;5.330;2022-10-24T12:17:08;18.50;99.90
19254;DHT22;9761;50.926;5.330;2022-10-24T12:19:41;18.60;99.90
19254;DHT22;9761;50.926;5.330;2022-10-24T12:22:15;18.60;99.90
19254;DHT22;9761;50.926;5.330;2022-10-24T12:24:47;18.30;99.90
19254;DHT22;9761;50.926;5.330;2022-10-24T12:27:30;18.50;99.90
19254;DHT22;9761;50.926;5.330;2022-10-24T12:30:12;18.90;99.90
19254;DHT22;9761;50.926;5.330;2022-10-24T12:33:06;19.00;99.90
19254;DHT22;9761;50.926;5.330;2022-10-24T12:35:52;19.10;99.90
19254;DHT22;9761;50.926;5.330;2022-10-24T12:41:42;18.90;99.90
19254;DHT22;9761;50.926;5.330;2022-10-24T12:44:36;18.80;99.90
19254;DHT22;9761;50.926;5.330;2022-10-24T12:47:38;18.90;99.90
19254;DHT22;9761;50.926;5.330;2022-10-24T12:56:23;18.80;99.90
19254;DHT22;9761;50.926;5.330;2022-10-24T12:58:57;19.00;99.90
19254;DHT22;9761;50.926;5.330;2022-10-24T13:01:35;18.80;99.90
19254;DHT22;9761;50.926;5.330;2022-10-24T13:04:34;19.00;99.90
19254;DHT22;9761;50.926;5.330;2022-10-24T13:13:59;19.00;99.90
19254;DHT22;9761;50.926;5.330;2022-10-24T13:16:59;19.10;99.90
19254;DHT22;9761;50.926;5.330;2022-10-24T13:19:32;19.00;99.90
19254;DHT22;9761;50.926;5.330;2022-10-24T13:22:27;19.00;99.90
19254;DHT22;9761;50.926;5.330;2022-10-24T13:24:56;19.10;99.90
19254;DHT22;9761;50.926;5.330;2022-10-24T13:27:34;18.90;99.90
19254;DHT22;9761;50.926;5.330;2022-10-24T13:30:23;18.90;99.90
19254;DHT22;9761;50.926;5.330;2022-10-24T13:35:40;18.80;99.90
19254;DHT22;9761;50.926;5.330;2022-10-24T13:38:09;18.80;99.90
19254;DHT22;9761;50.926;5.330;2022-10-24T13:40:44;18.80;99.90
19254;DHT22;9761;50.926;5.330;2022-10-24T13:43:18;19.10;99.90
19254;DHT22;9761;50.926;5.330;2022-10-24T13:45:52;19.30;99.90
19254;DHT22;9761;50.926;5.330;2022-10-24T13:48:26;19.00;99.90
19254;DHT22;9761;50.926;5.330;2022-10-24T13:51:02;18.90;99.90
19254;DHT22;9761;50.926;5.330;2022-10-24T13:53:34;18.80;99.90
19254;DHT22;9761;50.926;5.330;2022-10-24T13:56:18;18.60;99.90
19254;DHT22;9761;50.926;5.330;2022-10-24T13:58:51;18.40;99.90
19254;DHT22;9761;50.926;5.330;2022-10-24T14:01:21;18.30;99.90
19254;DHT22;9761;50.926;5.330;2022-10-24T14:03:56;18.10;99.90
19254;DHT22;9761;50.926;5.330;2022-10-24T14:06:28;17.80;99.90
19254;DHT22;9761;50.926;5.330;2022-10-24T14:09:04;16.50;99.90
19254;DHT22;9761;50.926;5.330;2022-10-24T14:11:38;16.30;99.90
19254;DHT22;9761;50.926;5.330;2022-10-24T14:17:06;16.00;99.90
19254;DHT22;9761;50.926;5.330;2022-10-24T14:19:35;16.10;99.90
19254;DHT22;9761;50.926;5.330;2022-10-24T14:22:18;16.20;99.90
19254;DHT22;9761;50.926;5.330;2022-10-24T14:24:47;16.10;99.90
19254;DHT22;9761;50.926;5.330;2022-10-24T14:27:16;16.00;99.90
19254;DHT22;9761;50.926;5.330;2022-10-24T14:29:57;16.10;99.90
19254;DHT22;9761;50.926;5.330;2022-10-24T14:32:29;16.20;99.90
19254;DHT22;9761;50.926;5.330;2022-10-24T14:34:58;16.20;99.90
19254;DHT22;9761;50.926;5.330;2022-10-24T14:37:29;16.40;99.90
19254;DHT22;9761;50.926;5.330;2022-10-24T14:39:58;16.30;99.90
19254;DHT22;9761;50.926;5.330;2022-10-24T14:42:30;16.20;99.90
19254;DHT22;9761;50.926;5.330;2022-10-24T14:44:59;16.20;99.90
19254;DHT22;9761;50.926;5.330;2022-10-24T14:47:50;16.10;99.90
19254;DHT22;9761;50.926;5.330;2022-10-24T14:50:37;16.20;99.90
19254;DHT22;9761;50.926;5.330;2022-10-24T14:53:21;16.10;99.90
19254;DHT22;9761;50.926;5.330;2022-10-24T14:56:05;16.10;99.90
19254;DHT22;9761;50.926;5.330;2022-10-24T14:58:42;16.10;99.90
19254;DHT22;9761;50.926;5.330;2022-10-24T15:01:24;16.00;99.90
19254;DHT22;9761;50.926;5.330;2022-10-24T15:04:37;16.00;99.90
19254;DHT22;9761;50.926;5.330;2022-10-24T15:07:30;16.00;99.90
19254;DHT22;9761;50.926;5.330;2022-10-24T15:10:28;16.00;99.90
19254;DHT22;9761;50.926;5.330;2022-10-24T15:13:15;16.10;99.90
19254;DHT22;9761;50.926;5.330;2022-10-24T15:15:51;16.10;99.90
19254;DHT22;9761;50.926;5.330;2022-10-24T15:18:21;16.00;99.90
19254;DHT22;9761;50.926;5.330;2022-10-24T15:20:52;15.60;99.90
19254;DHT22;9761;50.926;5.330;2022-10-24T15:23:24;15.50;99.90
19254;DHT22;9761;50.926;5.330;2022-10-24T15:26:01;15.40;99.90
19254;DHT22;9761;50.926;5.330;2022-10-24T15:28:43;15.30;99.90
19254;DHT22;9761;50.926;5.330;2022-10-24T15:31:11;15.40;99.90
19254;DHT22;9761;50.926;5.330;2022-10-24T15:33:39;15.30;99.90
19254;DHT22;9761;50.926;5.330;2022-10-24T15:36:16;15.30;99.90
19254;DHT22;9761;50.926;5.330;2022-10-24T15:38:47;15.20;99.90
19254;DHT22;9761;50.926;5.330;2022-10-24T15:41:15;15.20;99.90
19254;DHT22;9761;50.926;5.330;2022-10-24T15:46:47;15.10;99.90
19254;DHT22;9761;50.926;5.330;2022-10-24T15:49:28;14.90;99.90
19254;DHT22;9761;50.926;5.330;2022-10-24T15:52:20;15.00;99.90
19254;DHT22;9761;50.926;5.330;2022-10-24T15:54:47;15.00;99.90
19254;DHT22;9761;50.926;5.330;2022-10-24T15:57:15;15.00;99.90
19254;DHT22;9761;50.926;5.330;2022-10-24T15:59:48;15.20;99.90
19254;DHT22;9761;50.926;5.330;2022-10-24T16:02:20;15.30;99.90
19254;DHT22;9761;50.926;5.330;2022-10-24T16:07:20;15.40;99.90
19254;DHT22;9761;50.926;5.330;2022-10-24T16:09:48;15.40;99.90
19254;DHT22;9761;50.926;5.330;2022-10-24T16:12:15;15.60;99.90
19254;DHT22;9761;50.926;5.330;2022-10-24T16:14:42;15.80;99.90
19254;DHT22;9761;50.926;5.330;2022-10-24T16:17:10;15.60;99.90
19254;DHT22;9761;50.926;5.330;2022-10-24T16:19:37;15.60;99.90
19254;DHT22;9761;50.926;5.330;2022-10-24T16:22:04;15.60;99.90
19254;DHT22;9761;50.926;5.330;2022-10-24T16:24:35;15.50;99.90
19254;DHT22;9761;50.926;5.330;2022-10-24T17:15:05;15.30;99.90
19254;DHT22;9761;50.926;5.330;2022-10-24T17:17:33;15.20;99.90
19254;DHT22;9761;50.926;5.330;2022-10-24T17:20:07;15.20;99.90
19254;DHT22;9761;50.926;5.330;2022-10-24T18:59:19;15.60;99.90
19254;DHT22;9761;50.926;5.330;2022-10-24T19:21:19;14.00;99.90
19254;DHT22;9761;50.926;5.330;2022-10-24T19:23:49;13.80;99.90
19254;DHT22;9761;50.926;5.330;2022-10-24T19:26:16;13.70;99.90
19254;DHT22;9761;50.926;5.330;2022-10-24T19:28:44;13.70;99.90
19254;DHT22;9761;50.926;5.330;2022-10-24T19:31:12;13.70;99.90
19254;DHT22;9761;50.926;5.330;2022-10-24T19:33:41;13.60;99.90
19254;DHT22;9761;50.926;5.330;2022-10-24T19:39:30;13.50;99.90
19254;DHT22;9761;50.926;5.330;2022-10-24T19:42:13;13.40;99.90
19254;DHT22;9761;50.926;5.330;2022-10-24T19:44:40;13.40;99.90
19254;DHT22;9761;50.926;5.330;2022-10-24T19:47:10;13.40;99.90
19254;DHT22;9761;50.926;5.330;2022-10-24T19:49:39;13.40;99.90
19254;DHT22;9761;50.926;5.330;2022-10-24T19:52:08;13.40;99.90
19254;DHT22;9761;50.926;5.330;2022-10-24T19:54:39;13.40;99.90
19254;DHT22;9761;50.926;5.330;2022-10-24T19:57:09;13.50;99.90
19254;DHT22;9761;50.926;5.330;2022-10-24T19:59:42;13.60;99.90
19254;DHT22;9761;50.926;5.330;2022-10-24T20:02:11;13.70;99.90
19254;DHT22;9761;50.926;5.330;2022-10-24T20:04:38;13.80;99.90
19254;DHT22;9761;50.926;5.330;2022-10-24T20:07:06;13.80;99.90
19254;DHT22;9761;50.926;5.330;2022-10-24T20:09:37;13.90;99.90
19254;DHT22;9761;50.926;5.330;2022-10-24T20:12:07;14.00;99.90
19254;DHT22;9761;50.926;5.330;2022-10-24T20:14:34;14.00;99.90
19254;DHT22;9761;50.926;5.330;2022-10-24T20:17:02;14.00;99.90
19254;DHT22;9761;50.926;5.330;2022-10-24T20:19:30;14.00;99.90
